createdAt,value
2023-04-11T00:02:06.346Z,3.80
2023-04-11T00:05:09.308Z,3.80
2023-04-11T00:08:11.554Z,3.05
2023-04-11T00:11:13.567Z,4.25
2023-04-11T00:14:15.437Z,3.60
2023-04-11T00:17:17.773Z,3.72
2023-04-11T00:20:20.732Z,3.53
2023-04-11T00:23:22.757Z,3.20
2023-04-11T00:26:24.660Z,4.07
2023-04-11T00:29:26.592Z,3.45
2023-04-11T00:32:28.905Z,2.35
2023-04-11T00:35:34.584Z,2.63
2023-04-11T00:38:36.722Z,3.45
2023-04-11T00:41:39.568Z,2.88
2023-04-11T00:44:41.590Z,2.95
2023-04-11T00:47:43.984Z,2.80
2023-04-11T00:50:46.617Z,2.58
2023-04-11T00:53:48.621Z,2.65
2023-04-11T00:56:51.158Z,2.43
2023-04-11T00:59:53.465Z,2.35
2023-04-11T01:02:55.947Z,3.40
2023-04-11T01:05:58.075Z,2.63
2023-04-11T01:09:00.341Z,2.37
2023-04-11T01:12:04.047Z,2.80
2023-04-11T01:15:06.720Z,3.17
2023-04-11T01:18:09.628Z,2.60
2023-04-11T01:21:11.798Z,2.95
2023-04-11T01:24:14.200Z,2.38
2023-04-11T01:27:16.352Z,3.05
2023-04-11T01:30:18.828Z,1.80
2023-04-11T01:33:22.584Z,1.73
2023-04-11T01:36:24.972Z,1.42
2023-04-11T01:39:27.148Z,1.83
2023-04-11T01:42:30.713Z,2.10
2023-04-11T01:45:32.970Z,1.75
2023-04-11T01:48:35.046Z,1.83
2023-04-11T01:51:37.164Z,1.65
2023-04-11T01:54:39.886Z,1.83
2023-04-11T01:57:41.973Z,2.00
2023-04-11T02:00:44.175Z,3.63
2023-04-11T02:03:46.819Z,2.40
2023-04-11T02:06:48.959Z,1.90
2023-04-11T02:09:51.152Z,1.67
2023-04-11T02:12:53.280Z,1.77
2023-04-11T02:15:55.511Z,2.13
2023-04-11T02:19:03.548Z,2.95
2023-04-11T02:22:05.674Z,2.08
2023-04-11T02:25:08.452Z,1.98
2023-04-11T02:28:10.709Z,3.00
2023-04-11T02:31:12.901Z,1.53
2023-04-11T02:34:17.380Z,1.58
2023-04-11T02:37:19.682Z,2.92
2023-04-11T02:40:21.990Z,2.83
2023-04-11T02:43:23.953Z,2.53
2023-04-11T02:46:26.164Z,1.85
2023-04-11T02:49:28.252Z,1.67
2023-04-11T02:52:33.531Z,2.78
2023-04-11T02:55:35.644Z,2.50
2023-04-11T02:58:42.063Z,2.38
2023-04-11T03:01:47.122Z,1.73
2023-04-11T03:04:49.421Z,3.30
2023-04-11T03:07:52.969Z,2.03
2023-04-11T03:10:55.357Z,2.90
2023-04-11T03:13:59.625Z,2.42
2023-04-11T03:17:01.543Z,2.88
2023-04-11T03:20:08.201Z,2.25
2023-04-11T03:23:10.891Z,3.30
2023-04-11T03:26:14.398Z,2.97
2023-04-11T03:29:18.127Z,3.08
2023-04-11T03:32:33.541Z,2.37
2023-04-11T03:35:37.107Z,3.50
2023-04-11T03:38:39.252Z,3.58
2023-04-11T03:41:41.259Z,5.10
2023-04-11T03:44:45.376Z,4.80
2023-04-11T03:47:47.628Z,3.35
2023-04-11T03:50:52.739Z,3.42
2023-04-11T03:54:00.785Z,3.78
2023-04-11T03:57:07.849Z,2.50
2023-04-11T04:00:12.685Z,3.15
2023-04-11T04:03:18.551Z,2.67
2023-04-11T04:06:21.754Z,3.03
2023-04-11T04:09:25.252Z,2.67
2023-04-11T04:12:30.952Z,2.57
2023-04-11T04:15:43.912Z,2.38
2023-04-11T04:18:48.183Z,3.08
2023-04-11T04:21:50.456Z,2.10
2023-04-11T04:24:53.913Z,3.90
2023-04-11T04:28:01.001Z,2.20
2023-04-11T04:31:11.016Z,2.40
2023-04-11T04:34:22.009Z,1.47
2023-04-11T04:37:27.354Z,4.68
2023-04-11T04:40:42.074Z,3.75
2023-04-11T04:43:44.639Z,2.70
2023-04-11T04:47:06.869Z,3.92
2023-04-11T04:50:09.379Z,3.67
2023-04-11T04:53:11.548Z,3.72
2023-04-11T04:56:19.900Z,4.65
2023-04-11T04:59:23.779Z,5.20
2023-04-11T05:02:33.404Z,5.80
2023-04-11T05:05:35.650Z,5.33
2023-04-11T05:08:38.936Z,6.07
2023-04-11T05:11:43.696Z,6.75
2023-04-11T05:14:45.792Z,5.70
2023-04-11T05:17:47.911Z,6.57
2023-04-11T05:20:51.764Z,6.25
2023-04-11T05:23:57.753Z,5.95
2023-04-11T05:27:00.647Z,5.93
2023-04-11T05:30:02.705Z,4.72
2023-04-11T05:33:09.604Z,4.50
2023-04-11T05:36:14.149Z,4.93
2023-04-11T05:39:16.404Z,4.38
2023-04-11T05:42:18.642Z,5.45
2023-04-11T05:45:21.105Z,4.43
2023-04-11T05:48:24.134Z,5.70
2023-04-11T05:51:26.531Z,5.90
2023-04-11T05:54:36.341Z,5.78
2023-04-11T05:57:38.481Z,5.73
2023-04-11T06:00:40.485Z,5.80
2023-04-11T06:03:42.597Z,5.70
2023-04-11T06:06:44.687Z,5.70
2023-04-11T06:09:46.859Z,5.90
2023-04-11T06:12:48.894Z,5.32
2023-04-11T06:15:51.171Z,4.93
2023-04-11T06:18:53.455Z,4.57
2023-04-11T06:21:55.537Z,3.85
2023-04-11T06:24:57.606Z,4.75
2023-04-11T06:27:59.486Z,4.28
2023-04-11T06:31:01.860Z,3.77
2023-04-11T06:34:04.176Z,3.88
2023-04-11T06:37:07.256Z,4.22
2023-04-11T06:40:09.856Z,3.33
2023-04-11T06:43:12.041Z,3.47
2023-04-11T06:46:14.044Z,5.27
2023-04-11T06:49:17.752Z,5.40
2023-04-11T06:52:19.894Z,4.75
2023-04-11T06:55:23.020Z,5.05
2023-04-11T06:58:25.018Z,4.63
2023-04-11T07:01:30.904Z,3.53
2023-04-11T07:04:34.099Z,3.20
2023-04-11T07:07:37.442Z,4.03
2023-04-11T07:10:39.762Z,2.72
2023-04-11T07:13:41.969Z,3.00
2023-04-11T07:16:44.280Z,2.97
2023-04-11T07:19:46.708Z,1.55
2023-04-11T07:22:48.702Z,1.80
2023-04-11T07:25:50.627Z,2.40
2023-04-11T07:28:52.781Z,2.10
2023-04-11T07:31:55.165Z,1.43
2023-04-11T07:34:57.289Z,1.75
2023-04-11T07:38:01.171Z,1.27
2023-04-11T07:41:04.958Z,1.75
2023-04-11T07:44:07.896Z,1.70
2023-04-11T07:47:09.913Z,1.50
2023-04-11T07:50:12.121Z,2.17
2023-04-11T07:53:14.600Z,2.13
2023-04-11T07:56:16.620Z,1.73
2023-04-11T07:59:18.828Z,2.13
2023-04-11T08:02:21.058Z,2.00
2023-04-11T08:05:23.195Z,2.03
2023-04-11T08:08:26.121Z,2.08
2023-04-11T08:11:28.313Z,2.92
2023-04-11T08:14:30.332Z,2.60
2023-04-11T08:17:37.834Z,2.43
2023-04-11T08:20:40.924Z,2.25
2023-04-11T08:23:43.083Z,2.35
2023-04-11T08:26:45.700Z,2.40
2023-04-11T08:29:48.179Z,2.15
2023-04-11T08:32:50.422Z,1.50
2023-04-11T08:35:52.548Z,2.22
2023-04-11T08:38:56.836Z,2.08
2023-04-11T08:41:59.770Z,1.70
2023-04-11T08:45:08.478Z,1.73
2023-04-11T08:48:12.432Z,1.70
2023-04-11T08:51:22.356Z,1.73
2023-04-11T08:54:24.671Z,1.50
2023-04-11T08:57:31.605Z,1.45
2023-04-11T09:00:34.265Z,1.67
2023-04-11T09:03:51.653Z,1.67
2023-04-11T09:07:00.443Z,1.50
2023-04-11T09:10:22.168Z,1.73
2023-04-11T09:13:26.054Z,1.65
2023-04-11T09:16:28.037Z,1.60
2023-04-11T09:19:34.253Z,1.93
2023-04-11T09:22:36.629Z,1.83
2023-04-11T09:25:44.725Z,1.63
2023-04-11T09:28:53.785Z,1.92
2023-04-11T09:31:57.066Z,2.25
2023-04-11T09:35:20.422Z,2.07
2023-04-11T09:38:34.363Z,2.60
2023-04-11T09:41:36.951Z,2.08
2023-04-11T09:44:39.227Z,2.22
2023-04-11T09:47:44.058Z,2.45
2023-04-11T09:50:48.384Z,2.27
2023-04-11T09:53:51.473Z,1.80
2023-04-11T09:56:54.104Z,2.05
2023-04-11T09:59:56.668Z,2.30
2023-04-11T10:02:59.286Z,2.00
2023-04-11T10:06:05.064Z,2.00
2023-04-11T10:09:09.659Z,2.00
2023-04-11T10:12:12.044Z,2.10
2023-04-11T10:15:14.733Z,1.95
2023-04-11T10:18:17.005Z,2.13
2023-04-11T10:21:32.752Z,2.23
2023-04-11T10:24:34.972Z,2.33
2023-04-11T10:28:06.478Z,2.22
2023-04-11T10:31:13.101Z,2.17
2023-04-11T10:34:15.320Z,1.75
2023-04-11T10:37:19.243Z,2.27
2023-04-11T10:40:22.259Z,1.50
2023-04-11T10:43:24.345Z,2.13
2023-04-11T10:46:26.577Z,2.28
2023-04-11T10:49:39.594Z,2.00
2023-04-11T10:52:42.746Z,2.40
2023-04-11T10:55:48.214Z,2.15
2023-04-11T10:58:51.914Z,3.28
2023-04-11T11:01:57.960Z,3.05
2023-04-11T11:05:01.719Z,2.83
2023-04-11T11:08:03.782Z,2.30
2023-04-11T11:11:08.219Z,2.83
2023-04-11T11:14:10.442Z,2.92
2023-04-11T11:17:14.085Z,2.03
2023-04-11T11:20:19.633Z,2.55
2023-04-11T11:23:21.668Z,3.00
2023-04-11T11:26:35.112Z,2.70
2023-04-11T11:29:38.039Z,2.75
2023-04-11T11:32:40.112Z,2.30
2023-04-11T11:35:45.130Z,2.47
2023-04-11T11:38:47.538Z,2.57
2023-04-11T11:41:49.862Z,3.20
2023-04-11T11:44:51.848Z,3.30
2023-04-11T11:47:54.052Z,2.58
2023-04-11T11:50:57.647Z,2.85
2023-04-11T11:54:10.401Z,2.90
2023-04-11T11:57:12.796Z,3.13
2023-04-11T12:00:16.182Z,3.20
2023-04-11T12:03:21.756Z,3.58
2023-04-11T12:06:29.114Z,3.00
2023-04-11T12:09:31.878Z,3.60
2023-04-11T12:12:38.930Z,3.08
2023-04-11T12:15:43.349Z,3.25
2023-04-11T12:18:45.571Z,2.63
2023-04-11T12:21:47.502Z,2.95
2023-04-11T12:24:52.804Z,3.97
2023-04-11T12:27:54.998Z,4.47
2023-04-11T12:30:57.221Z,4.85
2023-04-11T12:33:59.312Z,4.30
2023-04-11T12:37:01.307Z,4.32
2023-04-11T12:40:10.821Z,5.23
2023-04-11T12:43:13.132Z,4.88
2023-04-11T12:46:15.364Z,5.10
2023-04-11T12:49:17.469Z,4.65
2023-04-11T12:52:19.950Z,5.78
2023-04-11T12:55:22.354Z,4.83
2023-04-11T12:58:24.469Z,3.90
2023-04-11T13:01:27.311Z,3.55
2023-04-11T13:04:30.628Z,4.53
2023-04-11T13:07:34.983Z,3.97
2023-04-11T13:10:37.200Z,3.53
2023-04-11T13:13:39.174Z,2.78
2023-04-11T13:16:41.303Z,3.67
2023-04-11T13:19:43.578Z,2.92
2023-04-11T13:22:45.548Z,3.63
2023-04-11T13:25:47.622Z,3.20
2023-04-11T13:28:49.587Z,4.07
2023-04-11T13:31:51.835Z,3.38
2023-04-11T13:34:53.878Z,3.45
2023-04-11T13:37:55.840Z,3.60
2023-04-11T13:40:58.889Z,3.07
2023-04-11T13:44:00.919Z,3.00
2023-04-11T13:47:03.688Z,3.88
2023-04-11T13:50:07.472Z,3.97
2023-04-11T13:53:10.511Z,3.20
2023-04-11T13:56:12.578Z,3.40
2023-04-11T13:59:14.705Z,3.05
2023-04-11T14:02:16.787Z,3.70
2023-04-11T14:05:19.453Z,3.55
2023-04-11T14:08:21.548Z,2.95
2023-04-11T14:11:23.521Z,4.23
2023-04-11T14:14:26.351Z,3.65
2023-04-11T14:17:29.757Z,3.58
2023-04-11T14:20:32.099Z,3.40
2023-04-11T14:23:34.674Z,3.55
2023-04-11T14:26:37.264Z,3.03
2023-04-11T14:29:39.523Z,3.67
2023-04-11T14:32:41.818Z,2.72
2023-04-11T14:35:47.059Z,3.85
2023-04-11T14:38:49.195Z,2.90
2023-04-11T14:41:51.289Z,3.53
2023-04-11T14:44:53.544Z,3.00
2023-04-11T14:47:55.671Z,2.60
2023-04-11T14:50:57.977Z,3.00
2023-04-11T14:54:00.757Z,2.70
2023-04-11T14:57:03.780Z,2.60
2023-04-11T15:00:06.785Z,2.30
2023-04-11T15:03:09.194Z,2.22
2023-04-11T15:06:12.430Z,1.88
2023-04-11T15:09:19.879Z,2.13
2023-04-11T15:12:22.014Z,1.90
2023-04-11T15:15:24.061Z,1.92
2023-04-11T15:18:30.681Z,2.20
2023-04-11T15:21:32.750Z,2.30
2023-04-11T15:24:34.696Z,1.95
2023-04-11T15:27:36.669Z,2.20
2023-04-11T15:30:47.991Z,1.67
2023-04-11T15:33:50.396Z,1.65
2023-04-11T15:36:52.334Z,1.75
2023-04-11T15:39:54.446Z,1.90
2023-04-11T15:42:56.471Z,1.60
2023-04-11T15:45:58.458Z,1.80
2023-04-11T15:49:00.524Z,0.90
2023-04-11T15:52:02.527Z,1.17
2023-04-11T15:55:04.933Z,0.77
2023-04-11T15:58:07.444Z,0.67
2023-04-11T16:01:23.572Z,0.73
2023-04-11T16:04:27.218Z,0.90
2023-04-11T16:07:29.674Z,0.85
2023-04-11T16:10:31.663Z,1.13
2023-04-11T16:13:34.124Z,1.13
2023-04-11T16:16:36.165Z,0.70
2023-04-11T16:19:38.296Z,1.17
2023-04-11T16:22:40.426Z,0.73
2023-04-11T16:25:42.369Z,1.08
2023-04-11T16:28:44.290Z,1.30
2023-04-11T16:31:46.401Z,0.80
2023-04-11T16:34:48.401Z,1.58
2023-04-11T16:37:51.790Z,0.93
2023-04-11T16:40:53.857Z,1.33
2023-04-11T16:43:56.276Z,0.77
2023-04-11T16:46:58.355Z,1.75
2023-04-11T16:50:00.599Z,1.25
2023-04-11T16:53:02.848Z,1.60
2023-04-11T16:56:05.339Z,1.52
2023-04-11T16:59:07.474Z,0.90
2023-04-11T17:02:09.432Z,0.80
2023-04-11T17:05:12.049Z,1.45
2023-04-11T17:08:15.618Z,1.67
2023-04-11T17:11:17.874Z,1.23
2023-04-11T17:14:19.800Z,1.95
2023-04-11T17:17:23.032Z,1.55
2023-04-11T17:20:25.508Z,1.23
2023-04-11T17:23:41.122Z,1.30
2023-04-11T17:26:44.176Z,1.30
2023-04-11T17:29:46.771Z,4.63
2023-04-11T17:32:49.188Z,4.82
2023-04-11T17:35:54.870Z,3.83
2023-04-11T17:38:57.377Z,4.13
2023-04-11T17:41:59.616Z,3.10
2023-04-11T17:45:16.624Z,2.25
2023-04-11T17:48:20.269Z,2.95
2023-04-11T17:51:22.331Z,3.20
2023-04-11T17:54:24.385Z,3.40
2023-04-11T17:57:27.465Z,2.47
2023-04-11T18:00:30.343Z,2.58
2023-04-11T18:03:34.976Z,2.22
2023-04-11T18:06:37.527Z,2.00
2023-04-11T18:09:40.774Z,2.10
2023-04-11T18:12:44.468Z,1.60
2023-04-11T18:15:46.449Z,1.83
2023-04-11T18:18:48.519Z,2.05
2023-04-11T18:21:50.740Z,1.85
2023-04-11T18:24:56.111Z,2.10
2023-04-11T18:27:58.118Z,2.67
2023-04-11T18:31:00.365Z,2.10
2023-04-11T18:34:03.510Z,2.85
2023-04-11T18:37:06.123Z,3.35
2023-04-11T18:40:11.753Z,2.53
2023-04-11T18:43:14.551Z,2.95
2023-04-11T18:46:16.760Z,2.42
2023-04-11T18:49:18.980Z,2.60
2023-04-11T18:52:21.069Z,2.25
2023-04-11T18:55:23.280Z,3.03
2023-04-11T18:58:26.549Z,2.67
2023-04-11T19:01:29.315Z,2.15
2023-04-11T19:04:33.914Z,2.30
2023-04-11T19:07:36.197Z,1.50
2023-04-11T19:10:38.644Z,2.47
2023-04-11T19:13:41.042Z,2.22
2023-04-11T19:16:44.261Z,2.70
2023-04-11T19:19:46.424Z,3.08
2023-04-11T19:22:48.541Z,2.03
2023-04-11T19:25:50.605Z,2.35
2023-04-11T19:28:52.793Z,2.40
2023-04-11T19:31:54.979Z,2.78
2023-04-11T19:34:57.121Z,2.58
2023-04-11T19:38:06.433Z,2.08
2023-04-11T19:41:14.777Z,3.08
2023-04-11T19:44:17.242Z,2.45
2023-04-11T19:47:19.528Z,2.85
2023-04-11T19:50:22.937Z,2.78
2023-04-11T19:53:24.987Z,2.58
2023-04-11T19:56:27.373Z,2.92
2023-04-11T19:59:29.405Z,2.70
2023-04-11T20:02:32.094Z,3.53
2023-04-11T20:05:34.570Z,1.92
2023-04-11T20:08:38.158Z,2.17
2023-04-11T20:11:40.200Z,2.58
2023-04-11T20:14:42.205Z,2.30
2023-04-11T20:17:46.126Z,2.00
2023-04-11T20:20:48.750Z,2.40
2023-04-11T20:23:51.659Z,2.90
2023-04-11T20:26:54.031Z,2.15
2023-04-11T20:29:59.087Z,2.00
2023-04-11T20:33:01.690Z,2.90
2023-04-11T20:36:03.997Z,2.83
2023-04-11T20:39:06.497Z,2.05
2023-04-11T20:42:10.843Z,2.95
2023-04-11T20:45:15.641Z,2.33
2023-04-11T20:48:17.892Z,2.33
2023-04-11T20:51:20.062Z,2.38
2023-04-11T20:54:22.461Z,2.70
2023-04-11T20:57:24.528Z,2.30
2023-04-11T21:00:26.785Z,2.53
2023-04-11T21:03:37.285Z,1.77
2023-04-11T21:06:39.332Z,1.42
2023-04-11T21:09:41.754Z,2.17
2023-04-11T21:12:43.908Z,1.70
2023-04-11T21:15:46.046Z,0.98
2023-04-11T21:18:48.093Z,2.13
2023-04-11T21:21:50.177Z,2.15
2023-04-11T21:24:52.182Z,1.23
2023-04-11T21:27:54.212Z,2.58
2023-04-11T21:30:56.689Z,2.20
2023-04-11T21:33:59.161Z,1.13
2023-04-11T21:37:01.499Z,1.57
2023-04-11T21:40:04.314Z,1.25
2023-04-11T21:43:07.093Z,1.30
2023-04-11T21:46:09.092Z,1.10
2023-04-11T21:49:11.824Z,0.50
2023-04-11T21:52:14.087Z,0.70
2023-04-11T21:55:16.649Z,1.05
2023-04-11T21:58:28.628Z,0.52
2023-04-11T22:01:32.132Z,0.57
2023-04-11T22:04:39.047Z,0.45
2023-04-11T22:07:46.310Z,0.38
2023-04-11T22:10:50.899Z,0.35
2023-04-11T22:13:53.238Z,0.30
2023-04-11T22:16:58.143Z,0.60
2023-04-11T22:20:00.576Z,0.50
2023-04-11T22:23:02.537Z,0.40
2023-04-11T22:26:05.489Z,0.40
2023-04-11T22:29:07.581Z,0.28
2023-04-11T22:32:09.899Z,0.55
2023-04-11T22:35:13.623Z,0.50
2023-04-11T22:38:15.970Z,0.20
2023-04-11T22:41:17.987Z,0.20
2023-04-11T22:44:20.181Z,0.65
2023-04-11T22:47:22.138Z,0.50
2023-04-11T22:50:24.309Z,0.10
2023-04-11T22:53:26.289Z,0.32
2023-04-11T22:56:28.238Z,0.60
2023-04-11T22:59:30.168Z,0.43
2023-04-11T23:02:32.362Z,1.17
2023-04-11T23:05:38.014Z,0.70
2023-04-11T23:08:40.240Z,0.20
2023-04-11T23:11:42.252Z,0.47
2023-04-11T23:14:46.535Z,0.30
2023-04-11T23:17:49.173Z,0.60
2023-04-11T23:20:53.041Z,0.55
2023-04-11T23:23:55.311Z,0.35
2023-04-11T23:26:58.467Z,0.57
2023-04-11T23:30:00.829Z,0.50
2023-04-11T23:33:04.302Z,0.40
2023-04-11T23:36:07.766Z,0.65
2023-04-11T23:39:09.933Z,0.75
2023-04-11T23:42:12.276Z,0.33
2023-04-11T23:45:15.125Z,0.80
2023-04-11T23:48:17.069Z,1.02
2023-04-11T23:51:19.320Z,0.40
2023-04-11T23:54:21.372Z,0.70
2023-04-11T23:57:23.517Z,0.55
